createdAt,value
2022-08-05T00:00:16.444Z,100862.78
2022-08-05T00:02:51.795Z,100860.75
2022-08-05T00:06:02.475Z,100868.41
2022-08-05T00:08:32.901Z,100866.78
2022-08-05T00:11:00.279Z,100862.78
2022-08-05T00:13:38.532Z,100863.56
2022-08-05T00:16:08.673Z,100866.78
2022-08-05T00:18:37.804Z,100862.78
2022-08-05T00:21:06.772Z,100856.34
2022-08-05T00:23:46.968Z,100866.41
2022-08-05T00:26:25.581Z,100863.56
2022-08-05T00:28:53.534Z,100891.72
2022-08-05T00:31:53.827Z,100908.63
2022-08-05T00:34:56.931Z,100893.38
2022-08-05T00:37:12.873Z,100892.56
2022-08-05T00:39:44.372Z,100892.56
2022-08-05T00:42:32.651Z,100887.75
2022-08-05T00:45:00.637Z,100894.19
2022-08-05T00:47:53.418Z,100887.75
2022-08-05T00:50:16.249Z,100895.38
2022-08-05T00:52:45.504Z,100900.63
2022-08-05T00:55:14.954Z,100899.81
2022-08-05T00:57:58.226Z,100896.19
2022-08-05T01:00:27.424Z,100887.75
2022-08-05T01:02:55.752Z,100892.19
2022-08-05T01:05:23.723Z,100903.44
2022-08-05T01:08:40.029Z,100917.53
2022-08-05T01:10:51.509Z,100899.81
2022-08-05T01:13:27.442Z,100910.28
2022-08-05T01:16:15.217Z,100914.69
2022-08-05T01:18:56.176Z,100899.81
2022-08-05T01:21:37.925Z,100917.53
2022-08-05T01:24:14.209Z,100912.69
2022-08-05T01:26:45.849Z,100902.28
2022-08-05T01:29:19.205Z,100917.53
2022-08-05T01:31:51.640Z,100919.16
2022-08-05T01:34:21.127Z,100907.91
2022-08-05T01:36:50.892Z,100902.28
2022-08-05T01:39:45.693Z,100899.44
2022-08-05T01:42:06.866Z,100905.09
2022-08-05T01:44:38.904Z,100885.38
2022-08-05T01:47:07.950Z,100883.38
2022-08-05T01:50:00.536Z,100886.97
2022-08-05T01:52:25.368Z,100901.06
2022-08-05T01:54:53.932Z,100886.97
2022-08-05T01:58:12.460Z,100889.81
2022-08-05T02:00:15.051Z,100901.06
2022-08-05T02:02:46.379Z,100898.25
2022-08-05T02:05:23.501Z,100894.22
2022-08-05T02:08:00.043Z,100891.81
2022-08-05T02:10:28.870Z,100899.84
2022-08-05T02:12:57.203Z,100895.44
2022-08-05T02:15:33.523Z,100886.97
2022-08-05T02:18:32.100Z,100894.22
2022-08-05T02:20:53.493Z,100896.25
2022-08-05T02:23:22.436Z,100891.41
2022-08-05T02:25:50.661Z,100880.16
2022-08-05T02:28:28.343Z,100880.16
2022-08-05T02:30:59.986Z,100886.97
2022-08-05T02:33:36.141Z,100880.16
2022-08-05T02:36:06.723Z,100882.97
2022-08-05T02:38:37.328Z,100876.13
2022-08-05T02:41:14.454Z,100877.34
2022-08-05T02:44:02.596Z,100877.34
2022-08-05T02:46:33.856Z,100876.13
2022-08-05T02:49:02.422Z,100878.94
2022-08-05T02:52:03.459Z,100880.16
2022-08-05T02:54:36.263Z,100872.50
2022-08-05T02:57:10.311Z,100869.69
2022-08-05T02:59:54.171Z,100864.88
2022-08-05T03:02:24.176Z,100861.25
2022-08-05T03:04:55.503Z,100869.28
2022-08-05T03:08:00.486Z,100850.78
2022-08-05T03:10:11.351Z,100850.78
2022-08-05T03:12:41.215Z,100845.97
2022-08-05T03:15:12.299Z,100847.56
2022-08-05T03:17:42.182Z,100845.16
2022-08-05T03:20:13.517Z,100840.31
2022-08-05T03:22:44.236Z,100841.13
2022-08-05T03:25:32.933Z,100839.53
2022-08-05T03:28:02.132Z,100839.94
2022-08-05T03:30:33.998Z,100843.13
2022-08-05T03:33:04.057Z,100856.41
2022-08-05T03:35:41.676Z,100860.84
2022-08-05T03:38:09.598Z,100869.28
2022-08-05T03:40:40.513Z,100869.28
2022-08-05T03:43:59.198Z,100874.13
2022-08-05T03:45:57.713Z,100867.69
2022-08-05T03:48:29.154Z,100860.84
2022-08-05T03:52:37.526Z,100862.03
2022-08-05T03:55:51.936Z,100850.78
2022-08-05T03:56:38.062Z,100858.03
2022-08-05T03:59:09.994Z,100874.94
2022-08-05T04:01:38.152Z,100887.00
2022-08-05T04:04:10.092Z,100883.38
2022-08-05T04:06:38.565Z,100891.81
2022-08-05T04:09:20.449Z,100903.09
2022-08-05T04:11:56.479Z,100897.44
2022-08-05T04:14:30.392Z,100908.72
2022-08-05T04:16:59.336Z,100903.09
2022-08-05T04:19:29.998Z,100903.91
2022-08-05T04:22:08.964Z,100895.44
2022-08-05T04:24:44.546Z,100891.81
2022-08-05T04:27:41.525Z,100889.00
2022-08-05T04:30:08.493Z,100874.94
2022-08-05T04:32:36.686Z,100880.56
2022-08-05T04:35:07.656Z,100874.94
2022-08-05T04:38:02.555Z,100874.94
2022-08-05T04:40:34.427Z,100882.16
2022-08-05T04:43:02.280Z,100887.00
2022-08-05T04:45:47.785Z,100874.94
2022-08-05T04:48:27.020Z,100893.44
2022-08-05T04:51:03.648Z,100897.09
2022-08-05T04:53:39.374Z,100901.06
2022-08-05T04:56:33.554Z,100901.88
2022-08-05T04:58:55.458Z,100905.53
2022-08-05T05:01:33.487Z,100910.34
2022-08-05T05:04:11.903Z,100928.88
2022-08-05T05:06:44.924Z,100938.50
2022-08-05T05:09:17.636Z,100951.41
2022-08-05T05:11:53.959Z,100962.66
2022-08-05T05:14:28.169Z,100981.19
2022-08-05T05:16:59.965Z,100973.94
2022-08-05T05:19:36.877Z,100968.31
2022-08-05T05:22:23.965Z,100957.84
2022-08-05T05:24:57.592Z,100961.47
2022-08-05T05:27:45.015Z,100964.69
2022-08-05T05:30:15.419Z,100957.03
2022-08-05T05:32:56.731Z,100957.84
2022-08-05T05:35:25.171Z,100969.09
2022-08-05T05:37:59.810Z,100992.44
2022-08-05T05:40:32.160Z,101014.97
2022-08-05T05:43:00.215Z,101029.06
2022-08-05T05:45:29.982Z,101034.69
2022-08-05T05:48:05.745Z,101043.13
2022-08-05T05:50:35.763Z,101037.50
2022-08-05T05:53:21.045Z,101053.19
2022-08-05T05:55:51.892Z,101056.03
2022-08-05T05:58:32.056Z,101056.03
2022-08-05T06:01:12.139Z,101066.47
2022-08-05T06:04:01.051Z,101076.94
2022-08-05T06:06:30.942Z,101084.19
2022-08-05T06:09:00.758Z,101089.81
2022-08-05T06:11:29.054Z,101084.19
2022-08-05T06:13:57.393Z,101076.53
2022-08-05T06:16:31.761Z,101057.63
2022-08-05T06:19:05.392Z,101057.63
2022-08-05T06:21:36.116Z,101057.63
2022-08-05T06:24:12.124Z,101057.63
2022-08-05T06:26:40.732Z,101054.81
2022-08-05T06:29:23.518Z,101053.63
2022-08-05T06:31:52.739Z,101052.81
2022-08-05T06:34:20.589Z,101048.81
2022-08-05T06:36:58.007Z,101047.97
2022-08-05T06:39:28.186Z,101042.34
2022-08-05T06:41:58.596Z,101053.63
2022-08-05T06:44:26.853Z,101046.38
2022-08-05T06:46:54.690Z,101048.81
2022-08-05T06:50:00.352Z,101058.06
2022-08-05T06:52:38.083Z,101066.53
2022-08-05T06:55:00.225Z,101060.91
2022-08-05T06:57:58.163Z,101076.59
2022-08-05T07:00:24.510Z,101092.69
2022-08-05T07:02:53.686Z,101094.69
2022-08-05T07:05:36.977Z,101113.22
2022-08-05T07:08:05.769Z,101124.47
2022-08-05T07:10:34.932Z,101116.84
2022-08-05T07:13:58.456Z,101119.66
2022-08-05T07:18:01.083Z,101103.56
2022-08-05T07:19:16.081Z,101097.94
2022-08-05T07:22:02.644Z,101082.66
2022-08-05T07:24:30.638Z,101074.19
2022-08-05T07:27:00.640Z,101080.63
2022-08-05T07:30:24.299Z,101078.63
2022-08-05T07:32:18.531Z,101089.88
2022-08-05T07:34:57.755Z,101093.91
2022-08-05T07:37:29.234Z,101084.25
2022-08-05T07:40:31.694Z,101072.19
2022-08-05T07:42:55.273Z,101071.81
2022-08-05T07:45:56.733Z,101073.00
2022-08-05T07:48:10.999Z,101044.81
2022-08-05T07:50:38.851Z,101021.13
2022-08-05T07:53:07.052Z,101056.09
2022-08-05T07:56:04.686Z,101059.34
2022-08-05T07:58:54.894Z,101036.00
2022-08-05T08:01:12.261Z,101009.84
2022-08-05T08:03:44.408Z,101024.75
2022-08-05T08:06:12.843Z,101038.03
2022-08-05T08:08:40.690Z,101040.84
2022-08-05T08:11:08.959Z,101029.16
2022-08-05T08:13:42.823Z,101040.84
2022-08-05T08:16:35.676Z,101065.78
2022-08-05T08:19:05.185Z,101063.38
2022-08-05T08:21:34.342Z,101062.16
2022-08-05T08:24:05.178Z,101070.63
2022-08-05T08:26:34.588Z,101074.25
2022-08-05T08:29:45.326Z,101090.34
2022-08-05T08:31:52.242Z,101091.94
2022-08-05T08:34:30.671Z,101110.06
2022-08-05T08:37:03.220Z,101122.13
2022-08-05T08:39:33.344Z,101137.03
2022-08-05T08:42:10.603Z,101137.81
2022-08-05T08:45:18.598Z,101137.03
2022-08-05T08:48:05.763Z,101132.19
2022-08-05T08:50:32.016Z,101135.00
2022-08-05T08:53:12.300Z,101134.19
2022-08-05T08:56:04.824Z,101139.84
2022-08-05T08:58:43.207Z,101138.63
2022-08-05T09:01:16.607Z,101141.47
2022-08-05T09:03:45.651Z,101152.72
2022-08-05T09:06:18.504Z,101146.28
2022-08-05T09:08:48.947Z,101142.66
2022-08-05T09:11:16.830Z,101148.72
2022-08-05T09:14:09.502Z,101144.28
2022-08-05T09:16:33.959Z,101131.00
2022-08-05T09:19:06.771Z,101141.47
2022-08-05T09:22:22.257Z,101145.88
2022-08-05T09:24:22.812Z,101149.91
2022-08-05T09:26:52.343Z,101154.34
2022-08-05T09:29:20.308Z,101133.00
2022-08-05T09:32:42.090Z,101113.28
2022-08-05T09:34:53.190Z,101126.16
2022-08-05T09:38:17.916Z,101121.34
2022-08-05T09:40:10.035Z,101127.78
2022-08-05T09:42:42.174Z,101117.72
2022-08-05T09:45:17.493Z,101093.97
2022-08-05T09:47:55.060Z,101087.53
2022-08-05T09:50:38.021Z,101093.97
2022-08-05T09:53:23.185Z,101105.25
2022-08-05T09:56:03.834Z,101071.44
2022-08-05T09:58:33.085Z,101065.81
2022-08-05T10:01:01.759Z,101110.88
2022-08-05T10:03:58.458Z,101118.16
2022-08-05T10:06:28.650Z,101099.63
2022-08-05T10:08:56.509Z,101101.25
2022-08-05T10:11:35.070Z,101118.16
2022-08-05T10:14:04.063Z,101118.16
2022-08-05T10:16:42.063Z,101126.63
2022-08-05T10:19:23.522Z,101133.41
2022-08-05T10:22:01.195Z,101144.69
2022-08-05T10:24:29.047Z,101157.59
2022-08-05T10:27:00.615Z,101160.41
2022-08-05T10:30:06.676Z,101146.34
2022-08-05T10:32:53.843Z,101135.88
2022-08-05T10:35:06.886Z,101137.88
2022-08-05T10:37:37.252Z,101129.44
2022-08-05T10:40:17.856Z,101141.13
2022-08-05T10:42:46.477Z,101135.88
2022-08-05T10:45:21.447Z,101122.59
2022-08-05T10:48:31.115Z,101116.97
2022-08-05T10:50:51.297Z,101114.16
2022-08-05T10:56:21.295Z,101114.94
2022-08-05T10:59:12.297Z,101115.75
2022-08-05T11:02:07.054Z,101126.22
2022-08-05T11:04:43.875Z,101127.03
2022-08-05T11:07:16.309Z,101138.31
2022-08-05T11:09:46.480Z,101132.66
2022-08-05T11:12:32.727Z,101141.13
2022-08-05T11:15:19.312Z,101138.31
2022-08-05T11:17:57.615Z,101139.09
2022-08-05T11:20:44.660Z,101138.31
2022-08-05T11:23:49.910Z,101125.41
2022-08-05T11:26:28.439Z,101131.03
2022-08-05T11:28:58.089Z,101132.66
2022-08-05T11:31:58.536Z,101132.66
2022-08-05T11:34:22.819Z,101138.31
2022-08-05T11:36:54.142Z,101139.09
2022-08-05T11:39:40.628Z,101127.03
2022-08-05T11:42:18.316Z,101135.47
2022-08-05T11:44:53.379Z,101143.94
2022-08-05T11:47:49.241Z,101143.94
2022-08-05T11:50:14.431Z,101149.56
2022-08-05T11:52:43.870Z,101132.66
2022-08-05T11:55:13.846Z,101143.94
2022-08-05T11:58:10.454Z,101138.31
2022-08-05T12:00:37.975Z,101129.84
2022-08-05T12:03:28.674Z,101132.66
2022-08-05T12:05:59.717Z,101127.03
2022-08-05T12:08:27.795Z,101138.31
2022-08-05T12:10:55.638Z,101141.13
2022-08-05T12:13:27.888Z,101131.47
2022-08-05T12:16:15.434Z,101128.66
2022-08-05T12:18:52.186Z,101128.66
2022-08-05T12:21:22.060Z,101124.63
2022-08-05T12:23:55.179Z,101127.84
2022-08-05T12:26:23.821Z,101130.66
2022-08-05T12:28:51.837Z,101135.91
2022-08-05T12:31:23.660Z,101129.47
2022-08-05T12:34:10.193Z,101144.75
2022-08-05T12:36:48.120Z,101142.72
2022-08-05T12:39:16.034Z,101145.56
2022-08-05T12:41:44.123Z,101151.19
2022-08-05T12:44:14.479Z,101153.59
2022-08-05T12:46:53.182Z,101147.97
2022-08-05T12:49:25.485Z,101152.81
2022-08-05T12:52:12.897Z,101145.56
2022-08-05T12:54:42.392Z,101140.72
2022-08-05T12:57:10.842Z,101148.81
2022-08-05T13:01:57.136Z,101143.19
2022-08-05T13:02:36.576Z,101139.16
2022-08-05T13:05:07.013Z,101135.91
2022-08-05T13:10:24.180Z,101141.97
2022-08-05T13:12:58.214Z,101133.88
2022-08-05T13:15:41.810Z,101140.34
2022-08-05T13:18:19.937Z,101144.34
2022-08-05T13:20:50.361Z,101136.69
2022-08-05T13:23:22.876Z,101144.78
2022-08-05T13:25:52.388Z,101146.41
2022-08-05T13:28:27.577Z,101157.69
2022-08-05T13:30:55.540Z,101139.16
2022-08-05T13:34:25.026Z,101153.25
2022-08-05T13:36:14.722Z,101160.50
2022-08-05T13:38:43.243Z,101153.25
2022-08-05T13:41:11.449Z,101156.88
2022-08-05T13:43:45.446Z,101160.50
2022-08-05T13:46:37.545Z,101157.69
2022-08-05T13:49:11.763Z,101152.03
2022-08-05T13:51:46.538Z,101152.03
2022-08-05T13:54:16.131Z,101152.84
2022-08-05T13:56:45.209Z,101146.41
2022-08-05T13:59:19.501Z,101152.03
2022-08-05T14:01:56.627Z,101152.03
2022-08-05T14:04:49.843Z,101149.22
2022-08-05T14:07:25.498Z,101149.22
2022-08-05T14:10:09.172Z,101151.25
2022-08-05T14:12:36.909Z,101158.50
2022-08-05T14:15:05.900Z,101143.59
2022-08-05T14:17:55.100Z,101152.03
2022-08-05T14:20:27.711Z,101162.13
2022-08-05T14:22:56.836Z,101170.56
2022-08-05T14:25:28.110Z,101179.81
2022-08-05T14:27:56.598Z,101177.81
2022-08-05T14:30:27.996Z,101176.19
2022-08-05T14:32:56.902Z,101167.75
2022-08-05T14:35:37.075Z,101177.81
2022-08-05T14:38:31.859Z,101177.81
2022-08-05T14:41:01.912Z,101175.00
2022-08-05T14:43:57.753Z,101178.63
2022-08-05T14:46:22.197Z,101167.75
2022-08-05T14:48:50.224Z,101172.19
2022-08-05T14:51:18.001Z,101171.38
2022-08-05T14:54:26.749Z,101167.75
2022-08-05T14:56:34.931Z,101168.56
2022-08-05T14:59:05.905Z,101160.09
2022-08-05T15:01:47.930Z,101162.13
2022-08-05T15:04:17.188Z,101175.00
2022-08-05T15:06:49.501Z,101170.56
2022-08-05T15:09:52.315Z,101170.56
2022-08-05T15:12:08.975Z,101160.91
2022-08-05T15:14:42.280Z,101190.75
2022-08-05T15:17:45.018Z,101211.63
2022-08-05T15:20:05.948Z,101193.56
2022-08-05T15:22:33.779Z,101187.91
2022-08-05T15:25:14.134Z,101194.72
2022-08-05T15:27:43.090Z,101200.81
2022-08-05T15:30:20.718Z,101205.63
2022-08-05T15:32:50.361Z,101216.09
2022-08-05T15:35:18.341Z,101223.34
2022-08-05T15:38:32.717Z,101228.19
2022-08-05T15:41:04.618Z,101226.16
2022-08-05T15:43:26.884Z,101219.72
2022-08-05T15:46:00.224Z,101227.78
2022-08-05T15:48:28.787Z,101231.81
2022-08-05T15:50:56.657Z,101241.88
2022-08-05T15:53:26.499Z,101250.31
2022-08-05T15:56:14.122Z,101239.06
2022-08-05T15:58:42.262Z,101222.16
2022-08-05T16:01:16.443Z,101235.03
2022-08-05T16:03:45.382Z,101248.72
2022-08-05T16:06:19.698Z,101267.22
2022-08-05T16:08:50.376Z,101261.59
2022-08-05T16:11:42.393Z,101272.88
2022-08-05T16:14:10.352Z,101272.88
2022-08-05T16:16:45.404Z,101284.13
2022-08-05T16:19:25.650Z,101289.78
2022-08-05T16:22:03.424Z,101289.78
2022-08-05T16:24:40.228Z,101302.66
2022-08-05T16:27:15.934Z,101302.66
2022-08-05T16:29:47.486Z,101329.22
2022-08-05T16:32:28.322Z,101342.13
2022-08-05T16:34:57.190Z,101340.50
2022-08-05T16:38:15.604Z,101337.69
2022-08-05T16:40:24.888Z,101346.13
2022-08-05T16:42:54.567Z,101359.03
2022-08-05T16:46:03.727Z,101364.66
2022-08-05T16:48:10.279Z,101352.56
2022-08-05T16:50:38.982Z,101364.66
2022-08-05T16:53:12.283Z,101359.03
2022-08-05T16:55:46.844Z,101374.31
2022-08-05T16:58:20.025Z,101392.03
2022-08-05T17:00:49.545Z,101402.91
2022-08-05T17:03:20.322Z,101410.94
2022-08-05T17:05:54.089Z,101415.38
2022-08-05T17:08:35.806Z,101418.19
2022-08-05T17:11:17.187Z,101423.84
2022-08-05T17:13:47.065Z,101426.66
2022-08-05T17:16:36.213Z,101419.41
2022-08-05T17:19:02.803Z,101419.41
2022-08-05T17:21:36.141Z,101425.03
2022-08-05T17:24:19.648Z,101433.50
2022-08-05T17:26:53.214Z,101448.38
2022-08-05T17:29:33.791Z,101458.84
2022-08-05T17:32:08.268Z,101458.84
2022-08-05T17:34:36.416Z,101455.59
2022-08-05T17:37:04.471Z,101435.50
2022-08-05T17:39:33.927Z,101435.50
2022-08-05T17:42:18.520Z,101432.69
2022-08-05T17:44:51.702Z,101448.78
2022-08-05T17:47:22.498Z,101461.25
2022-08-05T17:49:59.715Z,101474.13
2022-08-05T17:52:31.288Z,101472.50
2022-08-05T17:54:59.255Z,101478.97
2022-08-05T17:57:27.757Z,101473.31
2022-08-05T18:00:05.205Z,101470.50
2022-08-05T18:02:34.195Z,101468.84
2022-08-05T18:05:07.610Z,101490.22
2022-08-05T18:07:41.157Z,101483.78
2022-08-05T18:10:11.139Z,101499.03
2022-08-05T18:12:39.370Z,101504.69
2022-08-05T18:15:09.141Z,101510.31
2022-08-05T18:18:01.310Z,101516.75
2022-08-05T18:20:29.669Z,101523.22
2022-08-05T18:23:00.759Z,101521.59
2022-08-05T18:25:39.178Z,101524.41
2022-08-05T18:28:07.360Z,101498.22
2022-08-05T18:30:39.191Z,101511.50
2022-08-05T18:33:08.600Z,101518.34
2022-08-05T18:35:59.738Z,101526.78
2022-08-05T18:38:30.771Z,101529.59
2022-08-05T18:41:56.901Z,101535.25
2022-08-05T18:43:48.671Z,101536.44
2022-08-05T18:46:20.149Z,101544.88
2022-08-05T18:48:52.239Z,101552.16
2022-08-05T18:52:02.897Z,101554.53
2022-08-05T18:54:26.121Z,101558.97
2022-08-05T18:56:57.093Z,101556.16
2022-08-05T18:59:44.200Z,101568.63
2022-08-05T19:02:27.609Z,101569.78
2022-08-05T19:06:05.851Z,101586.69
2022-08-05T19:07:52.429Z,101586.69
2022-08-05T19:10:28.142Z,101598.78
2022-08-05T19:12:56.532Z,101604.41
2022-08-05T19:15:57.443Z,101600.78
2022-08-05T19:18:21.833Z,101592.34
2022-08-05T19:20:51.640Z,101591.16
2022-08-05T19:24:04.119Z,101604.41
2022-08-05T19:26:09.327Z,101596.34
2022-08-05T19:28:41.572Z,101607.63
2022-08-05T19:31:09.753Z,101617.25
2022-08-05T19:33:55.666Z,101618.88
2022-08-05T19:36:24.519Z,101611.63
2022-08-05T19:38:52.362Z,101614.44
2022-08-05T19:41:21.863Z,101622.91
2022-08-05T19:44:13.077Z,101616.44
2022-08-05T19:46:43.772Z,101627.72
2022-08-05T19:49:17.274Z,101632.53
2022-08-05T19:52:05.917Z,101632.53
2022-08-05T19:54:34.221Z,101632.53
2022-08-05T19:57:02.670Z,101630.91
2022-08-05T20:00:00.674Z,101637.38
2022-08-05T20:02:24.333Z,101649.44
2022-08-05T20:04:58.948Z,101654.28
2022-08-05T20:07:45.873Z,101660.72
2022-08-05T20:10:15.402Z,101660.72
2022-08-05T20:12:47.568Z,101659.09
2022-08-05T20:15:48.486Z,101661.91
2022-08-05T20:18:10.780Z,101663.91
2022-08-05T20:20:55.746Z,101654.63
2022-08-05T20:23:39.749Z,101657.44
2022-08-05T20:26:15.230Z,101668.72
2022-08-05T20:28:45.737Z,101685.63
2022-08-05T20:31:13.822Z,101692.09
2022-08-05T20:33:44.725Z,101695.25
2022-08-05T20:36:16.270Z,101703.38
2022-08-05T20:38:54.007Z,101702.53
2022-08-05T20:41:27.305Z,101712.16
2022-08-05T20:44:18.386Z,101712.97
2022-08-05T20:46:57.415Z,101720.63
2022-08-05T20:49:25.804Z,101723.44
2022-08-05T20:51:55.513Z,101730.25
2022-08-05T20:54:43.173Z,101738.72
2022-08-05T20:57:24.532Z,101737.53
2022-08-05T21:00:20.944Z,101738.72
2022-08-05T21:02:58.295Z,101741.53
2022-08-05T21:05:47.867Z,101743.53
2022-08-05T21:08:18.697Z,101752.81
2022-08-05T21:10:49.395Z,101763.25
2022-08-05T21:13:26.521Z,101761.25
2022-08-05T21:16:08.497Z,101766.88
2022-08-05T21:18:36.482Z,101765.25
2022-08-05T21:21:04.933Z,101773.72
2022-08-05T21:23:37.508Z,101764.44
2022-08-05T21:26:12.341Z,101759.63
2022-08-05T21:28:50.897Z,101765.25
2022-08-05T21:31:19.444Z,101764.44
2022-08-05T21:33:49.431Z,101770.09
2022-08-05T21:36:27.645Z,101780.53
2022-08-05T21:38:59.491Z,101780.53
2022-08-05T21:41:34.047Z,101780.53
2022-08-05T21:44:04.444Z,101770.47
2022-08-05T21:46:34.483Z,101769.28
2022-08-05T21:49:02.955Z,101773.28
2022-08-05T21:52:22.105Z,101774.91
2022-08-05T21:54:30.746Z,101786.19
2022-08-05T21:57:28.344Z,101794.97
2022-08-05T22:00:04.808Z,101790.19
2022-08-05T22:02:41.660Z,101798.63
2022-08-05T22:05:10.988Z,101795.81
2022-08-05T22:07:39.977Z,101782.88
2022-08-05T22:10:27.596Z,101778.91
2022-08-05T22:12:57.138Z,101794.16
2022-08-05T22:16:01.845Z,101804.28
2022-08-05T22:18:14.590Z,101812.72
2022-08-05T22:20:42.896Z,101807.44
2022-08-05T22:24:01.815Z,101808.25
2022-08-05T22:26:36.589Z,101817.88
2022-08-05T22:29:04.551Z,101813.06
2022-08-05T22:31:44.370Z,101815.06
2022-08-05T22:34:19.998Z,101827.16
2022-08-05T22:36:48.615Z,101831.97
2022-08-05T22:39:21.526Z,101832.78
2022-08-05T22:42:11.435Z,101837.59
2022-08-05T22:44:39.147Z,101839.63
2022-08-05T22:47:06.983Z,101838.81
2022-08-05T22:50:18.014Z,101844.44
2022-08-05T22:52:32.510Z,101844.44
2022-08-05T22:55:02.555Z,101844.44
2022-08-05T22:57:34.245Z,101835.97
2022-08-05T23:00:05.331Z,101845.63
2022-08-05T23:02:46.466Z,101840.00
2022-08-05T23:05:14.954Z,101840.81
2022-08-05T23:07:45.364Z,101844.00
2022-08-05T23:10:20.241Z,101834.34
2022-08-05T23:12:51.666Z,101845.63
2022-08-05T23:15:22.641Z,101844.00
2022-08-05T23:18:01.055Z,101849.63
2022-08-05T23:20:29.760Z,101855.25
2022-08-05T23:22:58.714Z,101847.97
2022-08-05T23:25:52.295Z,101847.97
2022-08-05T23:28:17.281Z,101854.44
2022-08-05T23:30:53.397Z,101845.16
2022-08-05T23:34:03.072Z,101847.16
2022-08-05T23:36:10.746Z,101859.25
2022-08-05T23:38:41.517Z,101868.88
2022-08-05T23:41:10.801Z,101879.34
2022-08-05T23:44:04.680Z,101874.50
2022-08-05T23:46:28.094Z,101872.88
2022-08-05T23:48:59.876Z,101867.25
2022-08-05T23:51:52.495Z,101867.25
2022-08-05T23:54:25.736Z,101878.50
2022-08-05T23:56:54.872Z,101884.16
2022-08-05T23:59:37.261Z,101884.16
